Marriottsville, MD (21104)

6:13 AM EDT on August 29, 2014 (GMT -0400)
Hoffman Acres | Change Station
CLOSE
Current Station
Personal Weather Station
Location: West Friendship, MD
Elevation: 545 ft
Nearby Weather Stations

Elev 545 ft 39.30 °N, 76.94 °W | Updated 4 minutes ago

Clear
Clear
51.3 °F
Feels Like 51.3 °F
N
0.0
Wind Variable Wind from SSW

Today
High -- | Low -- °F
--% Chance of Precip.
Yesterday
High -- | Low -- °F
Precip. -- in
6:33 AM 7:43 PM
Waxing Crescent, 13% visible
Pressure 30.15 in
Visibility 10.0 miles
Clouds Scattered Clouds 25000 ft
Dew Point 51 °F
Humidity 98%
Rainfall 0.00 in
Snow Depth Not available.
UV 0 out of 12
Pollen 10.20 out of 12
Air Quality Not available.
Flu Activity Not available.
METAR KBWI 290954Z 36005KT 10SM SCT250 15/10 A3015 RMK AO2 SLP208 T01500100

More Conditions Fewer Conditions

Pressure 30.15 in
Visibility 10.0 miles
Clouds Scattered Clouds 25000 ft
Dew Point 51 °F
Humidity 98%
Rainfall 0.00 in
Snow Depth Not available.
UV 0 out of 12
Pollen 10.20 out of 12
Air Quality Not available.
Flu Activity Not available.
METAR KBWI 290954Z 36005KT 10SM SCT250 15/10 A3015 RMK AO2 SLP208 T01500100

More Conditions Fewer Conditions

10-Day Weather Forecast

Almanac

Astronomy

Aug. 29, 2014 Rise Set
Actual Time 6:33 AM EDT 7:43 PM EDT
Civil Twilight 6:05 AM EDT 8:10 PM EDT
Nautical Twilight 5:32 AM EDT 8:43 PM EDT
Astronomical Twilight 4:58 AM EDT 9:17 PM EDT
Moon 10:19 AM EDT 9:41 PM EDT
Length of Visible Light 14h 05m
Length of Day
13h 09m
Tomorrow will be 2m 26s shorter.
Waxing Crescent, 13% of the Moon is Illuminated
Today
Waxing Crescent
Sep 2
First Quarter
Sep 8
Full
Sep 15
Last Quarter
Sep 24
New

Today's Extremes

State Highs State Lows

Community

WunderPhotos

Upload Photos

1,748,209 photos uploaded!

Nearby

Snow Depth

Station Depth Elevation
No new snow has been reported.

Earthquake Activity

City Distance Mag. Time & Date
No recent earthquake activity has been reported nearby.
Minimum magnitude displayed is 2.5.

Coastal Water Temperatures

Place Temperature
Baltimore, MD 81.0 °F
Tolchester Beach, MD 78.1 °F
Washington, DC 79.0 °F

Nearby Weather Stations